Time;durP1;ratioP1;P1;durP2;ratioP2;P2;SDS_P1;SDS_P2;PMS_P1;PMS_P2;Temp;Humidity;BMP_temperature;BMP_pressure;BME280_temperature;BME280_humidity;BME280_pressure;Samples;Min_cycle;Max_cycle;Signal;HPM_P1;HPM_P2
2023/05/03 00:01:56;;;;;;;7.60;5.87;;;;;;;13.04;81.85;98925.72;4154491;28;21522;-81
2023/05/03 00:04:00;;;;;;;7.97;5.50;;;;;;;13.04;81.89;98936.19;4153070;28;20655;-81
2023/05/03 00:06:11;;;;;;;8.53;5.77;;;;;;;12.97;81.81;98924.44;4167630;28;20667;-81
2023/05/03 00:08:14;;;;;;;6.30;5.57;;;;;;;12.96;81.90;98928.00;4171534;28;20638;-81
2023/05/03 00:10:18;;;;;;;6.93;5.50;;;;;;;12.95;83.50;98922.88;4168402;28;20638;-81
2023/05/03 00:12:21;;;;;;;7.27;5.90;;;;;;;12.96;82.89;98935.88;4168431;28;20639;-81
2023/05/03 00:14:25;;;;;;;7.63;5.70;;;;;;;12.92;82.12;98926.50;4156716;28;20722;-81
2023/05/03 00:16:28;;;;;;;6.53;5.83;;;;;;;12.92;82.18;98931.75;4182056;28;20743;-81
2023/05/03 00:18:31;;;;;;;7.20;5.97;;;;;;;12.91;83.65;98935.28;4172603;28;21055;-80
2023/05/03 00:20:36;;;;;;;7.80;6.20;;;;;;;12.85;82.51;98932.25;4184738;28;21853;-81
2023/05/03 00:22:39;;;;;;;7.10;6.33;;;;;;;12.76;82.06;98923.19;4166166;28;20741;-81
2023/05/03 00:24:42;;;;;;;8.50;6.63;;;;;;;12.75;82.32;98923.28;4182933;28;20659;-81
2023/05/03 00:26:45;;;;;;;10.20;6.40;;;;;;;12.76;81.83;98925.81;4170276;28;20781;-81
2023/05/03 00:28:48;;;;;;;6.67;5.73;;;;;;;12.76;81.88;98925.81;4173375;28;20647;-81
2023/05/03 00:30:51;;;;;;;8.33;6.30;;;;;;;12.73;82.18;98923.38;4155372;28;20642;-81
2023/05/03 00:32:54;;;;;;;7.73;6.03;;;;;;;12.66;82.93;98921.25;4164337;28;20694;-81
2023/05/03 00:34:58;;;;;;;8.37;6.77;;;;;;;12.62;82.55;98922.34;4169801;28;20646;-81
2023/05/03 00:37:03;;;;;;;8.10;6.73;;;;;;;12.63;82.33;98918.81;4169020;28;20636;-81
2023/05/03 00:39:06;;;;;;;10.30;6.80;;;;;;;12.63;83.26;98923.19;4177308;28;20633;-81
2023/05/03 00:41:09;;;;;;;8.63;6.87;;;;;;;12.64;83.79;98917.03;4153316;28;20694;-81
2023/05/03 00:43:13;;;;;;;8.43;6.60;;;;;;;12.60;82.51;98921.63;4145517;28;21055;-81
2023/05/03 00:45:16;;;;;;;7.60;6.80;;;;;;;12.58;83.11;98922.66;4153404;28;20669;-81
2023/05/03 00:47:21;;;;;;;7.97;6.83;;;;;;;12.56;83.26;98920.13;4156299;28;20650;-81
2023/05/03 00:49:24;;;;;;;8.93;7.00;;;;;;;12.57;83.24;98913.97;4167594;28;20730;-81
2023/05/03 00:51:27;;;;;;;11.17;7.33;;;;;;;12.57;82.61;98910.50;4160685;28;21206;-81
2023/05/03 00:53:32;;;;;;;11.13;8.00;;;;;;;12.57;83.73;98910.50;4154394;28;21364;-81
2023/05/03 00:55:36;;;;;;;11.47;6.60;;;;;;;12.57;82.51;98913.09;4166611;28;20634;-81
2023/05/03 00:57:39;;;;;;;8.03;6.80;;;;;;;12.53;83.97;98901.19;4167424;28;20628;-81
2023/05/03 00:59:42;;;;;;;8.20;6.70;;;;;;;12.47;83.60;98901.56;4153401;28;20646;-81
2023/05/03 01:01:48;;;;;;;8.67;7.20;;;;;;;12.47;84.41;98899.78;4164680;28;20643;-81
2023/05/03 01:03:51;;;;;;;9.90;7.40;;;;;;;12.42;83.19;98904.47;4155596;28;20681;-81
2023/05/03 01:06:01;;;;;;;10.17;8.10;;;;;;;12.41;83.64;98896.72;4150162;28;20670;-81
2023/05/03 01:08:09;;;;;;;10.80;8.20;;;;;;;12.35;83.96;98897.91;4169547;28;21050;-81
2023/05/03 01:10:20;;;;;;;12.67;8.10;;;;;;;12.33;82.64;98902.41;4167949;28;20739;-81
2023/05/03 01:12:30;;;;;;;11.37;8.87;;;;;;;12.34;82.79;98898.03;4165747;28;20684;-81
2023/05/03 01:14:47;;;;;;;10.47;7.90;;;;;;;12.30;84.13;98902.59;4149855;28;20637;-81
2023/05/03 01:16:54;;;;;;;10.97;8.23;;;;;;;12.26;84.75;98902.91;4164028;28;20654;-81
2023/05/03 01:19:00;;;;;;;10.87;8.10;;;;;;;12.26;83.85;98903.72;4167805;28;20643;-81
2023/05/03 01:21:05;;;;;;;11.73;7.40;;;;;;;12.26;84.93;98908.97;4164095;28;20630;-81
2023/05/03 01:23:11;;;;;;;12.03;8.37;;;;;;;12.28;84.62;98901.00;4158770;28;20635;-81
2023/05/03 01:25:16;;;;;;;11.60;8.40;;;;;;;12.26;84.90;98898.50;4155011;28;20667;-81
2023/05/03 01:27:19;;;;;;;11.00;8.33;;;;;;;12.25;85.33;98896.84;4166473;28;20643;-81
2023/05/03 01:29:22;;;;;;;11.23;8.50;;;;;;;12.24;83.58;98889.09;4150885;28;20677;-81
2023/05/03 01:31:29;;;;;;;11.83;8.63;;;;;;;12.22;83.31;98885.69;4179871;28;20638;-81
2023/05/03 01:33:37;;;;;;;15.43;8.33;;;;;;;12.19;84.90;98885.06;4154846;28;20664;-81
2023/05/03 01:35:41;;;;;;;11.70;8.03;;;;;;;12.18;84.62;98883.38;4172279;28;20694;-81
2023/05/03 01:37:45;;;;;;;10.53;8.47;;;;;;;12.10;84.14;98878.59;4154799;28;20685;-81
2023/05/03 01:39:51;;;;;;;11.50;8.20;;;;;;;12.11;85.40;98882.09;4165421;28;20630;-81
2023/05/03 01:41:56;;;;;;;10.63;8.40;;;;;;;12.06;85.39;98876.31;4150997;28;20645;-81
2023/05/03 01:44:00;;;;;;;10.53;8.37;;;;;;;12.01;85.83;98875.72;4178107;28;21053;-81
2023/05/03 01:46:03;;;;;;;14.27;9.00;;;;;;;11.98;85.90;98874.16;4165310;28;21211;-81
2023/05/03 01:48:10;;;;;;;10.53;8.63;;;;;;;11.99;85.77;98878.44;4155192;28;20676;-81
2023/05/03 01:50:13;;;;;;;9.90;7.80;;;;;;;12.00;83.67;98874.91;4172048;28;20695;-81
2023/05/03 01:52:16;;;;;;;10.40;8.00;;;;;;;12.00;83.61;98874.06;4157817;28;21227;-81
2023/05/03 01:54:19;;;;;;;10.63;8.67;;;;;;;12.01;84.73;98873.97;4158479;28;20626;-81
2023/05/03 01:56:22;;;;;;;10.40;7.80;;;;;;;12.03;84.93;98879.13;4158209;28;20645;-81
2023/05/03 01:58:27;;;;;;;12.70;8.63;;;;;;;12.03;85.69;98879.94;4150094;28;20673;-81
2023/05/03 02:00:30;;;;;;;10.60;8.60;;;;;;;12.04;85.30;98883.38;4158752;28;21152;-81
2023/05/03 02:02:33;;;;;;;12.27;8.80;;;;;;;12.04;86.03;98881.63;4169417;28;20651;-81
2023/05/03 02:04:36;;;;;;;15.03;8.67;;;;;;;12.05;83.86;98880.69;4155543;28;21029;-81
2023/05/03 02:06:40;;;;;;;9.53;8.50;;;;;;;12.03;84.46;98879.94;4172870;28;20629;-81
2023/05/03 02:08:43;;;;;;;11.93;8.67;;;;;;;11.99;85.59;98883.66;4172112;28;20635;-81
2023/05/03 02:10:46;;;;;;;14.60;8.90;;;;;;;12.00;84.10;98881.91;4152216;28;20720;-81
2023/05/03 02:12:51;;;;;;;11.87;8.27;;;;;;;11.95;84.77;98876.09;4167290;28;20633;-81
2023/05/03 02:14:56;;;;;;;13.60;9.37;;;;;;;11.92;84.77;98884.13;4169782;28;20629;-81
2023/05/03 02:16:59;;;;;;;11.90;9.00;;;;;;;11.92;84.47;98886.75;4170243;28;20641;-81
2023/05/03 02:19:02;;;;;;;12.63;9.00;;;;;;;11.88;86.11;98880.88;4166925;28;20699;-81
2023/05/03 02:21:06;;;;;;;11.20;8.57;;;;;;;11.84;85.04;98879.38;4167690;28;20636;-81
2023/05/03 02:23:09;;;;;;;12.00;8.80;;;;;;;11.82;85.08;98878.63;4155971;28;20677;-81
2023/05/03 02:25:12;;;;;;;13.93;9.03;;;;;;;11.80;85.76;98883.13;4169258;28;20701;-81
2023/05/03 02:27:16;;;;;;;15.20;9.37;;;;;;;11.80;84.84;98883.13;4152934;28;21029;-81
2023/05/03 02:29:19;;;;;;;12.13;9.20;;;;;;;11.79;84.51;98883.22;4168985;28;20729;-81
2023/05/03 02:31:23;;;;;;;10.70;8.87;;;;;;;11.75;85.48;98883.50;4165768;28;20637;-81
2023/05/03 02:33:26;;;;;;;12.70;8.90;;;;;;;11.76;86.44;98884.22;4165696;28;20638;-81
2023/05/03 02:35:29;;;;;;;11.80;9.73;;;;;;;11.79;85.81;98886.66;4168271;28;20639;-81
2023/05/03 02:37:33;;;;;;;10.10;8.93;;;;;;;11.80;85.96;98893.56;4150418;28;20680;-81
2023/05/03 02:39:39;;;;;;;12.27;8.87;;;;;;;11.80;85.44;98896.19;4164770;28;20660;-81
2023/05/03 02:41:43;;;;;;;11.27;8.60;;;;;;;11.81;86.60;98894.41;4163922;28;20653;-81
2023/05/03 02:43:47;;;;;;;11.30;8.40;;;;;;;11.82;86.70;98898.72;4167505;28;21254;-81
2023/05/03 02:45:50;;;;;;;10.20;8.00;;;;;;;11.82;86.27;98901.31;4150810;28;21254;-81
2023/05/03 02:47:55;;;;;;;14.40;9.03;;;;;;;11.81;85.38;98899.63;4166078;28;21241;-81
2023/05/03 02:50:01;;;;;;;12.50;9.23;;;;;;;11.79;87.20;98891.88;4146630;28;20642;-81
2023/05/03 02:52:08;;;;;;;11.60;9.00;;;;;;;11.75;85.76;98889.56;4169017;28;20644;-81
2023/05/03 02:54:11;;;;;;;13.80;9.57;;;;;;;11.72;85.09;98894.13;4153596;28;20722;-81
2023/05/03 02:56:14;;;;;;;12.47;9.50;;;;;;;11.67;86.75;98883.13;4166774;28;21000;-81
2023/05/03 02:58:18;;;;;;;12.30;9.17;;;;;;;11.62;86.05;98883.41;4149753;28;21261;-81
2023/05/03 03:00:21;;;;;;;11.60;9.30;;;;;;;11.60;85.37;98889.63;4145849;28;20649;-81
2023/05/03 03:02:24;;;;;;;11.33;9.07;;;;;;;11.58;86.45;98892.34;4168425;28;20630;-81
2023/05/03 03:04:30;;;;;;;13.37;9.40;;;;;;;11.56;86.47;98896.81;4157349;28;21126;-81
2023/05/03 03:06:33;;;;;;;14.17;9.60;;;;;;;11.56;86.89;98888.13;4154059;28;20755;-81
2023/05/03 03:08:36;;;;;;;12.33;10.47;;;;;;;11.52;86.34;98882.25;4156866;28;21214;-81
2023/05/03 03:10:40;;;;;;;14.10;9.90;;;;;;;11.52;87.08;98884.88;4170722;28;21246;-81
2023/05/03 03:12:46;;;;;;;12.23;9.20;;;;;;;11.49;87.75;98897.28;4168612;28;20670;-81
2023/05/03 03:14:58;;;;;;;13.00;9.23;;;;;;;11.47;85.93;98888.66;4185920;28;21203;-81
2023/05/03 03:17:02;;;;;;;12.93;9.40;;;;;;;11.41;85.50;98882.03;4173391;28;20641;-81
2023/05/03 03:19:05;;;;;;;12.50;10.23;;;;;;;11.40;87.19;98890.78;4172031;28;20770;-80
2023/05/03 03:21:10;;;;;;;15.20;9.90;;;;;;;11.34;86.63;98898.97;4156360;28;21334;-81
2023/05/03 03:23:13;;;;;;;13.57;9.80;;;;;;;11.33;86.43;98899.06;4168416;28;20691;-80
2023/05/03 03:25:17;;;;;;;11.80;10.03;;;;;;;11.33;86.33;98896.44;4174605;28;21024;-81
2023/05/03 03:27:21;;;;;;;14.30;9.80;;;;;;;11.30;86.94;98889.63;4158461;28;20626;-81
2023/05/03 03:29:26;;;;;;;13.40;9.30;;;;;;;11.28;87.52;98888.06;4170148;28;20644;-81
2023/05/03 03:31:30;;;;;;;13.60;9.73;;;;;;;11.27;85.35;98896.81;4156835;28;20644;-81
2023/05/03 03:33:34;;;;;;;12.77;10.37;;;;;;;11.21;87.32;98891.09;4172972;28;21275;-80
2023/05/03 03:35:43;;;;;;;16.03;11.33;;;;;;;11.19;85.80;98885.13;4166619;28;20767;-80
2023/05/03 03:37:48;;;;;;;15.13;10.00;;;;;;;11.16;86.08;98893.97;4148243;28;20997;-80
2023/05/03 03:39:52;;;;;;;14.13;9.87;;;;;;;11.16;86.98;98899.19;4163422;28;20673;-80
2023/05/03 03:41:56;;;;;;;12.47;9.47;;;;;;;11.12;86.24;98896.84;4152139;28;20659;-81
2023/05/03 03:44:00;;;;;;;12.00;10.03;;;;;;;11.10;88.07;98894.34;4170885;28;20645;-81
2023/05/03 03:46:03;;;;;;;13.17;9.93;;;;;;;11.10;86.63;98896.94;4153602;28;20753;-81
2023/05/03 03:48:06;;;;;;;20.30;10.87;;;;;;;11.08;87.39;98903.16;4175414;28;20636;-81
2023/05/03 03:50:10;;;;;;;17.13;10.83;;;;;;;11.07;88.02;98904.94;4184140;28;20628;-81
2023/05/03 03:52:14;;;;;;;13.07;10.07;;;;;;;11.06;86.63;98908.47;4150804;28;20647;-80
2023/05/03 03:54:18;;;;;;;12.27;9.87;;;;;;;11.03;86.90;98907.81;4170242;28;20626;-80
2023/05/03 03:56:25;;;;;;;13.87;10.63;;;;;;;10.95;85.62;98905.66;4167143;28;20641;-81
2023/05/03 03:58:30;;;;;;;15.00;10.37;;;;;;;10.90;86.80;98912.06;4180842;28;20761;-81
2023/05/03 04:00:34;;;;;;;16.77;11.30;;;;;;;10.85;86.47;98907.13;4172761;28;20724;-80
2023/05/03 04:02:43;;;;;;;15.27;10.17;;;;;;;10.79;86.34;98914.41;4158525;28;20672;-80
2023/05/03 04:04:52;;;;;;;12.80;9.97;;;;;;;10.76;87.59;98908.53;4154036;28;20649;-80
2023/05/03 04:06:55;;;;;;;14.17;10.47;;;;;;;10.69;86.76;98902.84;4169598;28;20675;-80
2023/05/03 04:09:01;;;;;;;11.90;9.23;;;;;;;10.67;86.24;98906.44;4155128;28;20634;-81
2023/05/03 04:11:11;;;;;;;15.20;10.03;;;;;;;10.64;87.29;98910.06;4176208;28;20767;-81
2023/05/03 04:13:20;;;;;;;14.73;9.77;;;;;;;10.64;87.52;98904.84;4165031;28;20628;-81
2023/05/03 04:15:26;;;;;;;14.80;10.70;;;;;;;10.66;88.58;98907.38;4169128;28;20755;-81
2023/05/03 04:17:33;;;;;;;15.43;10.90;;;;;;;10.64;88.23;98911.84;4169364;28;21061;-80
2023/05/03 04:19:40;;;;;;;15.93;11.00;;;;;;;10.67;88.77;98914.28;4154955;28;20641;-80
2023/05/03 04:21:43;;;;;;;13.23;10.13;;;;;;;10.69;87.95;98918.50;4154130;28;20682;-80
2023/05/03 04:23:46;;;;;;;14.57;9.90;;;;;;;10.72;88.46;98922.69;4167671;28;21031;-81
2023/05/03 04:25:52;;;;;;;14.80;10.63;;;;;;;10.76;88.92;98918.97;4154276;28;20729;-80
2023/05/03 04:27:59;;;;;;;14.63;10.93;;;;;;;10.76;88.13;98921.59;4151887;28;20673;-80
2023/05/03 04:30:05;;;;;;;14.30;10.77;;;;;;;10.74;87.07;98921.69;4153043;28;20772;-81
2023/05/03 04:32:10;;;;;;;14.47;10.50;;;;;;;10.77;88.55;98931.09;4159086;28;20624;-80
2023/05/03 04:34:14;;;;;;;14.37;10.50;;;;;;;10.79;88.44;98930.06;4167723;28;20644;-81
2023/05/03 04:36:24;;;;;;;17.80;10.10;;;;;;;10.82;87.31;98930.78;4153704;28;20647;-81
2023/05/03 04:38:29;;;;;;;17.97;11.90;;;;;;;10.82;87.67;98930.78;4169442;28;21104;-80
2023/05/03 04:40:36;;;;;;;15.70;10.63;;;;;;;10.83;88.31;98944.66;4172858;28;21278;-80
2023/05/03 04:42:43;;;;;;;14.07;11.67;;;;;;;10.86;87.23;98937.47;4170262;28;20650;-80
2023/05/03 04:44:47;;;;;;;15.10;11.33;;;;;;;10.89;88.43;98947.75;4150381;28;21003;-81
2023/05/03 04:46:51;;;;;;;17.63;11.73;;;;;;;10.89;87.53;98947.75;4165698;28;21026;-80
2023/05/03 04:48:54;;;;;;;17.40;10.50;;;;;;;10.81;87.97;98946.50;4185174;28;20631;-81
2023/05/03 04:50:57;;;;;;;18.80;11.33;;;;;;;10.84;86.96;98949.78;4152233;28;20641;-80
2023/05/03 04:53:01;;;;;;;14.07;10.60;;;;;;;10.86;88.39;98947.91;4156664;28;20641;-81
2023/05/03 04:55:07;;;;;;;14.80;11.07;;;;;;;10.86;87.74;98958.34;4168899;28;20698;-80
2023/05/03 04:57:11;;;;;;;14.70;10.00;;;;;;;10.93;89.06;98954.50;4168665;28;20620;-81
2023/05/03 04:59:14;;;;;;;16.33;11.17;;;;;;;11.00;87.64;98957.59;4155680;28;20721;-80
2023/05/03 05:01:25;;;;;;;15.03;10.40;;;;;;;11.03;87.98;98954.81;4169357;28;20640;-80
2023/05/03 05:03:30;;;;;;;16.77;10.50;;;;;;;11.08;88.17;98958.00;4154889;28;21233;-80
2023/05/03 05:05:37;;;;;;;17.90;12.10;;;;;;;11.13;88.32;98961.22;4150256;28;20660;-80
2023/05/03 05:07:41;;;;;;;13.90;10.23;;;;;;;11.17;88.50;98962.69;4151840;28;20745;-80
2023/05/03 05:09:46;;;;;;;15.57;11.27;;;;;;;11.22;87.34;98960.69;4165552;28;20633;-80
2023/05/03 05:11:51;;;;;;;17.37;10.93;;;;;;;11.23;87.23;98954.50;4153385;28;20636;-80
2023/05/03 05:13:58;;;;;;;15.50;11.10;;;;;;;11.28;88.31;98959.38;4169739;28;21023;-80
2023/05/03 05:16:01;;;;;;;17.93;11.27;;;;;;;11.36;88.58;98964.16;4151635;28;20640;-80
2023/05/03 05:18:08;;;;;;;17.27;11.80;;;;;;;11.39;86.53;98958.78;4153218;28;21054;-81
2023/05/03 05:20:12;;;;;;;16.37;11.83;;;;;;;11.45;87.19;98963.66;4155191;28;20629;-80
2023/05/03 05:22:20;;;;;;;13.80;10.53;;;;;;;11.57;85.68;98970.81;4170004;28;20776;-80
2023/05/03 05:24:29;;;;;;;15.93;10.00;;;;;;;11.73;87.04;98969.81;4167741;28;21220;-80
2023/05/03 05:26:32;;;;;;;15.57;10.87;;;;;;;11.89;85.26;98971.44;4154408;28;20637;-80
2023/05/03 05:28:35;;;;;;;16.40;10.90;;;;;;;12.10;85.60;98975.34;4168226;28;21099;-80
2023/05/03 05:30:39;;;;;;;14.80;10.60;;;;;;;12.33;83.40;98977.44;4149496;28;20700;-80
2023/05/03 05:32:42;;;;;;;13.43;10.50;;;;;;;12.48;83.51;98982.56;4153527;28;20627;-81
2023/05/03 05:34:51;;;;;;;17.90;11.50;;;;;;;12.66;83.06;98980.56;4152772;28;20638;-81
2023/05/03 05:36:56;;;;;;;16.57;11.30;;;;;;;12.88;81.14;98990.47;4169092;28;20645;-82
2023/05/03 05:38:59;;;;;;;15.33;11.10;;;;;;;13.05;81.49;98984.16;4166359;28;20631;-81
2023/05/03 05:41:05;;;;;;;14.97;10.20;;;;;;;13.26;80.47;98999.34;4150431;28;20645;-81
2023/05/03 05:43:09;;;;;;;13.53;9.80;;;;;;;13.41;80.07;98999.22;4167534;28;21228;-81
2023/05/03 05:45:15;;;;;;;14.90;10.87;;;;;;;13.63;79.44;98999.47;4169027;28;20640;-81
2023/05/03 05:47:18;;;;;;;16.03;10.80;;;;;;;13.82;77.76;99000.78;4168916;28;20666;-81
2023/05/03 05:49:23;;;;;;;13.53;10.50;;;;;;;13.99;78.07;99002.28;4152235;28;20649;-81
2023/05/03 05:51:29;;;;;;;15.03;11.77;;;;;;;14.17;76.89;98996.66;4153876;28;21059;-81
2023/05/03 05:53:33;;;;;;;14.70;10.50;;;;;;;14.33;75.97;99000.75;4149701;28;21077;-81
2023/05/03 05:55:37;;;;;;;14.87;10.77;;;;;;;14.49;76.16;99005.78;4151741;28;21225;-81
2023/05/03 05:57:41;;;;;;;13.10;10.50;;;;;;;14.60;76.05;99007.53;4154817;28;20615;-81
2023/05/03 05:59:45;;;;;;;14.93;10.20;;;;;;;14.73;76.27;99002.28;4176632;28;21043;-81
2023/05/03 06:01:49;;;;;;;14.97;11.60;;;;;;;14.92;74.51;99003.50;4176972;28;20730;-81
2023/05/03 06:03:55;;;;;;;14.33;10.30;;;;;;;15.02;74.65;99003.66;4146799;28;20647;-81
2023/05/03 06:05:58;;;;;;;14.17;10.63;;;;;;;15.14;74.83;99011.53;4183363;28;20670;-81
2023/05/03 06:08:03;;;;;;;14.67;11.60;;;;;;;15.14;73.29;99003.66;4168581;28;20670;-81
2023/05/03 06:10:07;;;;;;;14.27;10.93;;;;;;;15.18;72.88;99008.63;4149773;28;20633;-80
2023/05/03 06:12:12;;;;;;;17.60;11.57;;;;;;;15.25;73.11;99006.38;4146352;28;20747;-81
2023/05/03 06:14:19;;;;;;;17.07;10.97;;;;;;;15.34;72.31;98998.66;4160323;28;20643;-81
2023/05/03 06:16:23;;;;;;;15.00;11.30;;;;;;;15.47;73.53;99015.22;4172280;28;20635;-81
2023/05/03 06:18:26;;;;;;;13.40;10.80;;;;;;;15.59;70.76;99009.91;4175722;28;21266;-80
2023/05/03 06:20:29;;;;;;;13.80;11.33;;;;;;;15.74;72.13;99006.13;4164336;28;20639;-80
2023/05/03 06:22:33;;;;;;;14.17;10.80;;;;;;;15.85;70.70;99007.97;4152978;28;20640;-80
2023/05/03 06:24:38;;;;;;;15.57;11.47;;;;;;;15.98;70.71;99017.44;4169528;28;20683;-80
2023/05/03 06:26:41;;;;;;;15.83;11.80;;;;;;;15.95;72.12;99009.78;4151202;28;20677;-80
2023/05/03 06:28:46;;;;;;;14.43;11.23;;;;;;;16.18;69.97;99016.78;4148383;28;20672;-80
2023/05/03 06:30:49;;;;;;;17.67;12.33;;;;;;;16.29;69.23;99015.03;4168108;28;20650;-80
2023/05/03 06:32:53;;;;;;;15.33;10.93;;;;;;;16.45;70.12;99015.53;4155474;28;20739;-80
2023/05/03 06:34:58;;;;;;;14.10;10.80;;;;;;;16.52;69.21;99012.31;4169673;28;21835;-80
2023/05/03 06:37:01;;;;;;;15.03;11.30;;;;;;;16.70;69.07;99031.13;4170101;28;20694;-80
2023/05/03 06:39:05;;;;;;;14.27;11.43;;;;;;;16.64;70.07;99015.78;4157482;28;20906;-81
2023/05/03 06:41:09;;;;;;;13.07;11.20;;;;;;;16.79;69.16;99023.31;4167002;28;21463;-82
2023/05/03 06:43:12;;;;;;;12.63;10.60;;;;;;;16.52;69.20;99007.06;4169570;28;20634;-81
2023/05/03 06:45:28;;;;;;;13.70;10.07;;;;;;;16.58;70.79;99005.72;4169195;28;20633;-81
2023/05/03 06:47:33;;;;;;;14.27;11.00;;;;;;;16.91;70.91;99014.44;4177292;28;20702;-80
2023/05/03 06:49:37;;;;;;;14.10;11.00;;;;;;;17.24;70.34;99020.56;4164031;28;20639;-80
2023/05/03 06:51:40;;;;;;;15.50;11.73;;;;;;;17.22;68.83;99009.28;4166006;28;20640;-79
2023/05/03 06:53:45;;;;;;;11.63;10.00;;;;;;;17.11;67.88;99004.03;4173585;28;20630;-80
2023/05/03 06:55:50;;;;;;;18.93;11.47;;;;;;;16.77;67.49;98998.91;4164574;28;20620;-81
2023/05/03 06:57:55;;;;;;;15.07;10.47;;;;;;;16.91;68.33;98998.63;4174179;28;20633;-81
2023/05/03 06:59:59;;;;;;;12.43;10.50;;;;;;;17.01;68.14;99004.88;4176134;28;20641;-80
2023/05/03 07:02:02;;;;;;;12.17;10.60;;;;;;;17.30;70.65;99011.31;4170852;28;20678;-81
2023/05/03 07:04:05;;;;;;;14.60;10.07;;;;;;;17.58;69.10;99014.25;4169967;28;20618;-81
2023/05/03 07:06:09;;;;;;;13.83;10.60;;;;;;;17.79;67.25;99015.94;4159089;28;21110;-81
2023/05/03 07:08:12;;;;;;;11.37;9.73;;;;;;;17.72;66.08;99009.50;4171164;28;20747;-81
2023/05/03 07:10:15;;;;;;;13.10;10.03;;;;;;;17.46;67.47;98994.97;4172581;28;20637;-80
2023/05/03 07:12:18;;;;;;;14.27;10.50;;;;;;;17.58;66.94;98999.25;4161685;28;21211;-80
2023/05/03 07:14:23;;;;;;;13.20;9.93;;;;;;;17.61;67.98;99001.63;4165275;28;20650;-80
2023/05/03 07:16:26;;;;;;;11.40;10.20;;;;;;;17.87;67.92;98992.38;4149264;28;20749;-80
2023/05/03 07:18:30;;;;;;;12.43;10.23;;;;;;;18.20;67.66;99002.81;4169145;28;20640;-81
2023/05/03 07:20:33;;;;;;;11.33;10.07;;;;;;;18.36;65.93;99000.53;4153620;28;20625;-80
2023/05/03 07:22:36;;;;;;;14.67;10.17;;;;;;;18.12;65.73;98990.22;4167284;28;20634;-81
2023/05/03 07:24:39;;;;;;;12.20;9.60;;;;;;;18.20;66.15;98995.72;4161598;28;20653;-80
2023/05/03 07:26:42;;;;;;;14.77;9.57;;;;;;;18.52;67.19;98996.44;4165861;28;20663;-81
2023/05/03 07:28:46;;;;;;;12.57;10.13;;;;;;;18.84;67.05;98991.84;4167207;28;20655;-81
2023/05/03 07:30:51;;;;;;;13.30;9.20;;;;;;;18.98;66.89;98995.00;4170208;28;20692;-82
2023/05/03 07:32:54;;;;;;;12.10;9.40;;;;;;;19.08;65.96;98988.78;4173954;28;20635;-81
2023/05/03 07:34:57;;;;;;;13.33;10.47;;;;;;;18.94;64.13;98988.28;4169071;28;20653;-81
2023/05/03 07:37:00;;;;;;;14.50;9.80;;;;;;;18.64;63.85;98979.53;4167634;28;20745;-81
2023/05/03 07:39:04;;;;;;;11.60;9.13;;;;;;;18.78;65.26;98976.53;4175674;28;20626;-81
2023/05/03 07:41:07;;;;;;;12.57;9.87;;;;;;;19.07;65.47;98989.75;4168396;28;21065;-81
2023/05/03 07:43:10;;;;;;;14.37;10.13;;;;;;;19.22;64.91;98988.41;4161738;28;20694;-81
2023/05/03 07:45:13;;;;;;;13.70;9.60;;;;;;;19.40;65.00;98984.94;4169149;28;20636;-81
2023/05/03 07:47:17;;;;;;;12.83;9.80;;;;;;;19.25;64.03;98977.53;4163486;28;20643;-81
2023/05/03 07:49:21;;;;;;;17.07;10.50;;;;;;;19.48;65.57;98987.75;4169312;28;20659;-81
2023/05/03 07:51:24;;;;;;;10.83;9.47;;;;;;;19.59;64.60;98990.28;4168246;28;20690;-81
2023/05/03 07:53:28;;;;;;;11.33;9.80;;;;;;;19.48;62.92;98987.75;4154360;28;20693;-81
2023/05/03 07:55:31;;;;;;;12.23;10.27;;;;;;;19.61;63.55;98982.19;4157867;28;21039;-81
2023/05/03 07:57:35;;;;;;;14.47;10.00;;;;;;;19.21;63.64;98983.25;4153315;28;21064;-81
2023/05/03 07:59:38;;;;;;;13.40;9.73;;;;;;;19.12;63.95;98982.25;4172210;28;20714;-81
2023/05/03 08:01:41;;;;;;;12.57;10.20;;;;;;;19.19;63.83;98974.63;4173460;28;21214;-81
2023/05/03 08:03:49;;;;;;;11.13;9.90;;;;;;;19.23;65.28;98978.66;4166614;28;20712;-81
2023/05/03 08:05:52;;;;;;;11.57;9.07;;;;;;;19.43;63.92;98971.44;4171397;28;20654;-81
2023/05/03 08:07:55;;;;;;;11.70;9.40;;;;;;;19.58;64.04;98975.34;4155928;28;20680;-81
2023/05/03 08:09:58;;;;;;;13.70;9.80;;;;;;;19.67;63.07;98982.47;4173950;28;20750;-81
2023/05/03 08:12:02;;;;;;;11.13;9.80;;;;;;;19.61;64.59;98969.78;4167271;28;20648;-81
2023/05/03 08:14:05;;;;;;;11.53;8.93;;;;;;;19.61;63.95;98975.06;4186731;28;20643;-81
2023/05/03 08:16:08;;;;;;;12.20;10.50;;;;;;;19.39;63.88;98966.56;4168542;28;20677;-81
2023/05/03 08:18:11;;;;;;;11.37;9.77;;;;;;;19.36;64.21;98964.19;4157036;28;20691;-81
2023/05/03 08:20:16;;;;;;;10.57;9.40;;;;;;;19.44;63.75;98962.53;4177208;28;21026;-80
2023/05/03 08:22:19;;;;;;;11.10;9.60;;;;;;;19.42;63.88;98948.63;4156959;28;20633;-81
2023/05/03 08:24:23;;;;;;;12.17;10.87;;;;;;;19.19;63.43;98953.47;4159179;28;20642;-81
2023/05/03 08:26:27;;;;;;;11.70;10.50;;;;;;;19.14;64.05;98969.72;4166021;28;21056;-81
2023/05/03 08:28:30;;;;;;;13.03;10.90;;;;;;;19.15;65.90;98965.28;4178420;28;21204;-81
2023/05/03 08:30:33;;;;;;;10.30;9.20;;;;;;;19.37;65.59;98966.69;4164386;28;21363;-79
2023/05/03 08:32:36;;;;;;;11.20;9.70;;;;;;;19.79;66.39;98972.59;4169188;28;20637;-81
2023/05/03 08:34:40;;;;;;;14.57;8.80;;;;;;;20.02;66.53;98974.81;4158195;28;21051;-81
2023/05/03 08:36:44;;;;;;;13.33;9.97;;;;;;;19.92;63.28;98979.28;4169399;28;21230;-81
2023/05/03 08:38:48;;;;;;;13.17;9.80;;;;;;;19.68;64.17;98978.00;4172226;28;20633;-81
2023/05/03 08:40:51;;;;;;;15.07;10.10;;;;;;;19.68;64.12;98976.22;4172280;28;20678;-81
2023/05/03 08:42:56;;;;;;;10.30;9.00;;;;;;;19.78;64.20;98981.50;4165447;28;20636;-81
2023/05/03 08:44:59;;;;;;;12.20;9.67;;;;;;;19.98;64.16;98978.72;4168835;28;20664;-81
2023/05/03 08:47:04;;;;;;;10.83;9.50;;;;;;;20.12;63.98;98975.66;4145659;28;20741;-81
2023/05/03 08:49:07;;;;;;;10.37;8.83;;;;;;;19.94;63.39;98986.13;4172808;28;22010;-81
2023/05/03 08:51:11;;;;;;;10.70;9.00;;;;;;;19.94;63.30;98975.50;4171856;28;20687;-81
2023/05/03 08:53:15;;;;;;;11.00;9.90;;;;;;;19.85;62.76;98984.28;4155160;28;20752;-81
2023/05/03 08:55:19;;;;;;;10.17;9.17;;;;;;;19.63;63.77;98980.22;4161806;28;20634;-81
2023/05/03 08:57:24;;;;;;;11.37;9.10;;;;;;;19.66;64.39;98987.91;4152779;28;21031;-81
2023/05/03 08:59:28;;;;;;;11.87;9.90;;;;;;;19.89;64.28;98984.84;4189258;28;20628;-81
2023/05/03 09:01:31;;;;;;;10.07;9.03;;;;;;;20.08;64.54;98988.31;4170008;28;21286;-81
2023/05/03 09:03:35;;;;;;;11.87;9.47;;;;;;;20.24;65.14;98991.25;4158684;28;21054;-81
2023/05/03 09:05:39;;;;;;;10.40;9.30;;;;;;;20.50;63.93;98987.00;4169254;28;20661;-81
2023/05/03 09:07:44;;;;;;;10.13;9.10;;;;;;;20.54;63.41;98991.03;4173161;28;20698;-81
2023/05/03 09:09:49;;;;;;;11.07;9.93;;;;;;;20.39;63.04;98984.50;4170430;28;20740;-81
2023/05/03 09:11:52;;;;;;;12.50;10.00;;;;;;;20.49;64.90;98988.81;4168719;28;21029;-81
2023/05/03 09:14:08;;;;;;;12.83;10.40;;;;;;;20.69;65.08;98987.78;4172727;28;20988;-81
2023/05/03 09:16:11;;;;;;;11.40;10.20;;;;;;;20.89;65.30;98990.22;4167900;28;20647;-81
2023/05/03 09:18:16;;;;;;;13.23;9.60;;;;;;;21.09;64.51;98997.09;4165639;28;20669;-81
2023/05/03 09:20:34;;;;;;;10.10;9.10;;;;;;;21.10;62.66;98998.78;4154535;28;20730;-81
2023/05/03 09:22:37;;;;;;;13.03;10.30;;;;;;;20.58;63.29;98987.09;4170289;28;20637;-81
2023/05/03 09:24:53;;;;;;;11.33;9.63;;;;;;;20.14;61.92;98978.97;4168176;28;20642;-81
2023/05/03 09:26:57;;;;;;;10.83;9.40;;;;;;;19.93;63.78;98970.34;4171917;28;20637;-81
2023/05/03 09:29:01;;;;;;;10.77;9.63;;;;;;;20.09;64.47;98982.06;4158369;28;20678;-81
2023/05/03 09:31:06;;;;;;;10.83;9.13;;;;;;;20.22;64.42;98979.09;4171933;28;20649;-81
2023/05/03 09:33:10;;;;;;;10.17;9.17;;;;;;;20.44;64.83;98979.59;4171107;28;20644;-81
2023/05/03 09:35:14;;;;;;;11.00;9.90;;;;;;;20.62;64.43;98970.75;4168101;28;20631;-81
2023/05/03 09:37:17;;;;;;;11.10;9.30;;;;;;;20.75;64.33;98968.66;4164371;28;20644;-81